Time;durP1;ratioP1;P1;durP2;ratioP2;P2;SDS_P1;SDS_P2;PMS_P1;PMS_P2;Temp;Humidity;BMP_temperature;BMP_pressure;BME280_temperature;BME280_humidity;BME280_pressure;Samples;Min_cycle;Max_cycle;Signal;HPM_P1;HPM_P2
2022/05/28 00:01:47;;;;;;;25.80;13.55;;;26.10;99.90;;;;;;5053540;28;20070;-61
2022/05/28 00:04:15;;;;;;;21.25;11.57;;;26.10;99.90;;;;;;5046944;28;20017;-61
2022/05/28 00:06:42;;;;;;;24.60;11.90;;;26.10;99.90;;;;;;5048606;28;20028;-61
2022/05/28 00:09:08;;;;;;;23.67;11.13;;;26.00;99.90;;;;;;5054797;28;20025;-61
2022/05/28 00:11:39;;;;;;;15.38;8.63;;;26.00;99.90;;;;;;5053217;28;20040;-62
2022/05/28 00:14:07;;;;;;;18.73;10.55;;;26.00;99.90;;;;;;5054866;28;20025;-61
2022/05/28 00:16:36;;;;;;;18.27;10.10;;;25.90;99.90;;;;;;5054900;28;20017;-61
2022/05/28 00:19:04;;;;;;;18.48;9.23;;;25.90;99.90;;;;;;5048636;28;20029;-61
2022/05/28 00:21:31;;;;;;;15.00;9.55;;;25.90;99.90;;;;;;5053567;28;20425;-61
2022/05/28 00:23:58;;;;;;;18.92;9.88;;;25.90;99.90;;;;;;5054707;28;20469;-67
2022/05/28 00:26:25;;;;;;;26.73;13.35;;;26.00;99.90;;;;;;5054813;28;20024;-68
2022/05/28 00:28:52;;;;;;;18.85;9.85;;;26.00;99.90;;;;;;5054697;28;20028;-67
2022/05/28 00:31:19;;;;;;;22.25;10.43;;;25.90;99.90;;;;;;5053392;28;20024;-68
2022/05/28 00:33:46;;;;;;;22.60;10.55;;;25.90;99.90;;;;;;5054713;28;20099;-68
2022/05/28 00:36:14;;;;;;;30.85;17.00;;;26.00;99.90;;;;;;5050318;28;20037;-66
2022/05/28 00:38:43;;;;;;;35.53;24.08;;;26.00;99.90;;;;;;5051421;28;20104;-67
2022/05/28 00:41:11;;;;;;;34.13;19.05;;;26.00;99.90;;;;;;5043935;28;20475;-67
2022/05/28 00:43:40;;;;;;;24.80;14.15;;;26.00;99.90;;;;;;5050671;28;20055;-67
2022/05/28 00:46:19;;;;;;;31.45;16.48;;;25.90;99.90;;;;;;5054242;28;20036;-67
2022/05/28 00:48:50;;;;;;;29.75;15.60;;;26.00;99.90;;;;;;5044038;28;20025;-67
2022/05/28 00:51:21;;;;;;;17.70;10.45;;;26.10;99.90;;;;;;5033877;28;20048;-66
2022/05/28 00:53:49;;;;;;;17.27;10.27;;;26.10;99.90;;;;;;5037671;28;20526;-67
2022/05/28 00:56:16;;;;;;;25.75;10.52;;;26.00;99.90;;;;;;5049534;28;20036;-67
2022/05/28 00:58:42;;;;;;;17.80;9.90;;;26.10;99.90;;;;;;5034811;28;20026;-67
2022/05/28 01:01:11;;;;;;;16.00;10.10;;;26.10;99.90;;;;;;5034094;28;20021;-67
2022/05/28 01:04:12;;;;;;;21.52;11.27;;;26.30;99.90;;;;;;5036138;28;20060;-69
2022/05/28 01:06:46;;;;;;;19.95;9.20;;;26.30;99.90;;;;;;5048200;28;20055;-68
2022/05/28 01:09:50;;;;;;;19.40;9.77;;;26.30;99.90;;;;;;5014189;28;20030;-68
2022/05/28 01:12:36;;;;;;;15.32;8.73;;;26.30;99.90;;;;;;4972185;28;20049;-67
2022/05/28 01:15:09;;;;;;;10.63;6.85;;;26.40;99.90;;;;;;4973214;28;20502;-67
2022/05/28 01:17:51;;;;;;;15.20;6.45;;;26.40;99.90;;;;;;4969916;28;20031;-67
2022/05/28 01:20:33;;;;;;;13.57;5.70;;;26.50;99.90;;;;;;4970193;28;20043;-66
2022/05/28 01:23:28;;;;;;;13.70;4.63;;;26.50;99.90;;;;;;4971297;28;20027;-66
2022/05/28 01:26:18;;;;;;;19.02;6.05;;;26.50;99.90;;;;;;4968585;28;20091;-67
2022/05/28 01:28:57;;;;;;;18.75;6.00;;;26.60;99.90;;;;;;4934377;29;20493;-67
2022/05/28 01:31:26;;;;;;;16.13;6.68;;;26.70;99.90;;;;;;4934198;29;20027;-67
2022/05/28 01:33:54;;;;;;;15.18;5.90;;;26.70;99.90;;;;;;4934356;29;20028;-62
2022/05/28 01:36:21;;;;;;;15.57;7.03;;;26.90;99.90;;;;;;4938386;28;20027;-62
2022/05/28 01:38:49;;;;;;;14.18;5.93;;;27.00;99.90;;;;;;4970797;28;20133;-62
2022/05/28 01:41:17;;;;;;;20.95;7.57;;;27.00;99.90;;;;;;4972614;28;20087;-62
2022/05/28 01:43:47;;;;;;;12.60;6.60;;;27.10;99.90;;;;;;4972733;28;20435;-62
2022/05/28 01:46:16;;;;;;;13.98;7.50;;;27.20;99.90;;;;;;4972413;28;20532;-62
2022/05/28 01:48:45;;;;;;;12.38;7.60;;;27.30;99.90;;;;;;4967522;28;20069;-62
2022/05/28 01:51:14;;;;;;;15.35;7.13;;;27.30;99.90;;;;;;4970157;28;20042;-62
2022/05/28 01:56:29;;;;;;;16.58;8.35;;;27.60;99.90;;;;;;4971477;28;20039;-63
2022/05/28 01:58:56;;;;;;;18.67;8.90;;;27.70;99.90;;;;;;4972435;28;20035;-63
2022/05/28 02:01:22;;;;;;;14.70;7.35;;;27.70;99.90;;;;;;4972546;28;20495;-62
2022/05/28 02:03:52;;;;;;;15.05;7.63;;;27.70;99.90;;;;;;4970416;28;20026;-62
2022/05/28 02:06:19;;;;;;;13.57;6.93;;;27.60;99.90;;;;;;4969448;28;20122;-62
2022/05/28 02:08:47;;;;;;;16.60;8.48;;;27.60;99.90;;;;;;5017866;28;20080;-63
2022/05/28 02:11:17;;;;;;;14.55;8.18;;;27.60;99.90;;;;;;5050530;28;20056;-62
2022/05/28 02:14:05;;;;;;;25.15;14.27;;;27.60;99.90;;;;;;5053314;28;20029;-62
2022/05/28 02:16:51;;;;;;;23.88;14.50;;;27.60;99.90;;;;;;4970107;28;20032;-61
2022/05/28 02:19:26;;;;;;;21.15;14.73;;;27.60;99.90;;;;;;4943849;29;20063;-62
2022/05/28 02:22:03;;;;;;;35.30;23.25;;;27.70;99.90;;;;;;4953058;29;20036;-62
2022/05/28 02:24:38;;;;;;;36.53;25.73;;;27.60;99.90;;;;;;4954205;28;20020;-62
2022/05/28 02:27:10;;;;;;;48.22;32.67;;;27.60;99.90;;;;;;4952877;29;20034;-62
2022/05/28 02:29:37;;;;;;;38.17;30.00;;;27.60;99.90;;;;;;4952934;29;20031;-62
2022/05/28 02:32:24;;;;;;;44.58;32.47;;;27.60;99.90;;;;;;4967153;28;20042;-62
2022/05/28 02:34:51;;;;;;;43.65;34.83;;;27.70;99.90;;;;;;4973137;28;20054;-62
2022/05/28 02:37:22;;;;;;;43.90;34.97;;;27.70;99.90;;;;;;4976043;28;20118;-62
2022/05/28 02:39:49;;;;;;;39.40;30.30;;;27.70;99.90;;;;;;4971829;28;20453;-62
2022/05/28 02:42:16;;;;;;;43.78;30.55;;;27.80;99.90;;;;;;4975806;28;20101;-62
2022/05/28 02:44:43;;;;;;;39.08;29.67;;;27.80;99.90;;;;;;4975851;28;20031;-63
2022/05/28 02:47:10;;;;;;;40.42;26.35;;;27.80;99.90;;;;;;4973170;28;20070;-63
2022/05/28 02:49:37;;;;;;;38.00;26.30;;;27.90;99.90;;;;;;4957718;28;20559;-63
2022/05/28 02:52:07;;;;;;;31.63;24.08;;;27.90;99.90;;;;;;4951270;29;20082;-62
2022/05/28 02:54:35;;;;;;;41.58;26.13;;;27.90;99.90;;;;;;5029411;28;20045;-62
2022/05/28 02:57:02;;;;;;;45.60;29.17;;;27.90;99.90;;;;;;5045022;28;20560;-62
2022/05/28 02:59:28;;;;;;;40.80;27.08;;;28.00;99.90;;;;;;5038993;28;20112;-62
2022/05/28 03:01:55;;;;;;;41.58;29.20;;;28.00;99.90;;;;;;5053246;28;20087;-62
2022/05/28 03:04:22;;;;;;;44.30;28.52;;;28.00;99.90;;;;;;5053395;28;20040;-61
2022/05/28 03:06:49;;;;;;;44.13;28.67;;;28.00;99.90;;;;;;5056134;28;20021;-62
2022/05/28 03:09:16;;;;;;;45.33;29.40;;;28.00;99.90;;;;;;5049831;28;20450;-61
2022/05/28 03:11:43;;;;;;;46.08;29.02;;;27.90;99.90;;;;;;5056027;28;20025;-61
2022/05/28 03:14:11;;;;;;;50.58;30.23;;;27.90;99.90;;;;;;5056240;28;20025;-61
2022/05/28 03:16:38;;;;;;;66.80;37.50;;;27.90;99.90;;;;;;5055678;28;20416;-61
2022/05/28 03:19:05;;;;;;;48.80;32.60;;;27.90;99.90;;;;;;5052653;28;20025;-61
2022/05/28 03:21:34;;;;;;;46.15;32.65;;;27.90;99.90;;;;;;5051388;28;20043;-62
2022/05/28 03:24:01;;;;;;;39.05;27.83;;;27.90;99.90;;;;;;5054436;28;20037;-61
2022/05/28 03:26:30;;;;;;;41.75;29.23;;;27.90;99.90;;;;;;5055915;28;20029;-62
2022/05/28 03:28:57;;;;;;;52.35;33.03;;;27.90;99.90;;;;;;5055885;28;20079;-61
2022/05/28 03:31:25;;;;;;;40.80;30.40;;;27.90;99.90;;;;;;5055630;28;20386;-62
2022/05/28 03:33:52;;;;;;;44.58;30.70;;;27.90;99.90;;;;;;5055654;28;20086;-62
2022/05/28 03:36:20;;;;;;;44.35;30.17;;;27.90;99.90;;;;;;5048437;28;20029;-62
2022/05/28 03:38:49;;;;;;;50.97;32.60;;;27.90;99.90;;;;;;5055295;28;20029;-62
2022/05/28 03:41:19;;;;;;;52.95;39.00;;;27.90;99.90;;;;;;5054410;28;20072;-61
2022/05/28 03:43:46;;;;;;;49.67;31.70;;;27.90;99.90;;;;;;5055356;28;20475;-60
2022/05/28 03:46:27;;;;;;;51.90;34.90;;;27.90;99.90;;;;;;5032909;28;20179;-62
2022/05/28 03:49:03;;;;;;;47.60;33.00;;;28.00;99.90;;;;;;5042559;28;20591;-61
2022/05/28 03:51:30;;;;;;;56.83;31.88;;;28.00;99.90;;;;;;5034561;28;20038;-61
2022/05/28 03:53:57;;;;;;;39.42;27.95;;;28.10;99.90;;;;;;5015443;28;20120;-61
2022/05/28 03:56:33;;;;;;;41.45;30.17;;;28.10;99.90;;;;;;5022984;28;20013;-61
2022/05/28 03:58:59;;;;;;;45.67;30.65;;;28.10;99.90;;;;;;5018646;28;20359;-61
2022/05/28 04:01:26;;;;;;;44.25;26.05;;;28.20;99.90;;;;;;5035495;28;20029;-61
2022/05/28 04:03:53;;;;;;;40.70;27.20;;;28.30;99.90;;;;;;5035172;28;20168;-62
2022/05/28 04:06:19;;;;;;;32.28;20.60;;;28.40;99.90;;;;;;5039150;28;20394;-62
2022/05/28 04:08:46;;;;;;;40.17;20.77;;;28.40;99.90;;;;;;5032924;28;20032;-61
2022/05/28 04:11:14;;;;;;;35.72;21.88;;;28.50;99.90;;;;;;5024966;28;20025;-61
2022/05/28 04:13:40;;;;;;;36.55;21.33;;;28.70;99.90;;;;;;5051378;28;20394;-62
2022/05/28 04:16:07;;;;;;;37.65;20.15;;;28.80;99.90;;;;;;5026937;28;20552;-60
2022/05/28 04:18:34;;;;;;;36.08;21.45;;;28.90;99.90;;;;;;5030499;28;20096;-61
2022/05/28 04:21:01;;;;;;;34.33;20.77;;;29.00;99.90;;;;;;5031338;28;20629;-61
2022/05/28 04:23:28;;;;;;;31.27;19.48;;;29.10;99.90;;;;;;5027203;28;20084;-59
2022/05/28 04:25:55;;;;;;;41.58;24.77;;;29.20;99.90;;;;;;5033927;28;20053;-63
2022/05/28 04:28:22;;;;;;;32.85;20.45;;;29.30;99.90;;;;;;5034274;28;20037;-60
2022/05/28 04:30:48;;;;;;;31.00;19.83;;;29.30;99.90;;;;;;5035368;28;20025;-62
2022/05/28 04:33:15;;;;;;;36.03;21.10;;;29.40;99.90;;;;;;5048346;28;20033;-62
2022/05/28 04:35:42;;;;;;;32.65;19.48;;;29.60;99.90;;;;;;5052693;28;20017;-62
2022/05/28 04:38:09;;;;;;;35.60;24.42;;;29.60;99.90;;;;;;5025923;28;20026;-61
2022/05/28 04:40:35;;;;;;;41.35;23.17;;;29.70;99.90;;;;;;5025042;28;20501;-61
2022/05/28 04:43:02;;;;;;;50.67;37.25;;;29.70;99.90;;;;;;5024195;28;20437;-62
2022/05/28 04:45:29;;;;;;;42.17;27.90;;;29.70;99.90;;;;;;5033820;28;20035;-61
2022/05/28 04:47:56;;;;;;;41.53;30.40;;;29.90;99.90;;;;;;5025021;28;20026;-62
2022/05/28 04:50:22;;;;;;;29.30;18.85;;;30.00;99.90;;;;;;5023414;28;20018;-62
2022/05/28 04:52:52;;;;;;;27.70;21.27;;;30.10;99.90;;;;;;5024915;28;20023;-62
2022/05/28 04:55:18;;;;;;;46.15;29.75;;;30.20;99.90;;;;;;5026444;28;20072;-60
2022/05/28 04:57:45;;;;;;;28.88;20.17;;;30.30;99.90;;;;;;5030825;28;20441;-61
2022/05/28 05:00:16;;;;;;;39.22;28.35;;;30.30;99.90;;;;;;5025345;28;20025;-62
2022/05/28 05:02:43;;;;;;;33.45;21.17;;;30.40;99.90;;;;;;5024159;28;20068;-61
2022/05/28 05:05:11;;;;;;;33.05;21.35;;;30.40;99.90;;;;;;5023051;28;20037;-61
2022/05/28 05:07:37;;;;;;;33.08;24.70;;;30.40;99.90;;;;;;5027863;28;20044;-60
2022/05/28 05:10:05;;;;;;;33.53;23.25;;;30.30;99.90;;;;;;5030770;28;20041;-61
2022/05/28 05:12:32;;;;;;;32.45;21.10;;;30.30;99.90;;;;;;5026131;28;20033;-62
2022/05/28 05:14:58;;;;;;;40.20;19.98;;;30.40;99.90;;;;;;5026330;28;20490;-59
2022/05/28 05:17:25;;;;;;;33.60;22.00;;;30.40;99.90;;;;;;5029982;28;20021;-61
2022/05/28 05:19:53;;;;;;;34.80;23.35;;;30.50;99.90;;;;;;5025908;28;20026;-61
2022/05/28 05:22:23;;;;;;;30.45;20.75;;;30.50;99.90;;;;;;5025556;28;20048;-60
2022/05/28 05:24:52;;;;;;;32.65;18.42;;;30.50;99.90;;;;;;5028282;28;20034;-61
2022/05/28 05:27:19;;;;;;;23.73;14.05;;;30.60;99.90;;;;;;5025580;28;20438;-61
2022/05/28 05:29:46;;;;;;;25.17;14.00;;;30.60;99.90;;;;;;5023821;28;20021;-59
2022/05/28 05:32:12;;;;;;;20.88;12.40;;;30.70;99.90;;;;;;5021733;28;20013;-59
2022/05/28 05:34:39;;;;;;;14.35;9.98;;;30.80;99.90;;;;;;5021186;28;20426;-61
2022/05/28 05:37:06;;;;;;;11.38;8.90;;;30.90;99.90;;;;;;5024425;28;20406;-60
2022/05/28 05:39:32;;;;;;;13.63;9.30;;;31.10;99.90;;;;;;5020615;28;20105;-61
2022/05/28 05:41:59;;;;;;;13.43;8.90;;;31.20;99.90;;;;;;5028615;28;20037;-59
2022/05/28 05:44:26;;;;;;;16.33;9.45;;;31.20;99.90;;;;;;5021353;28;20041;-60
2022/05/28 05:46:53;;;;;;;13.32;8.75;;;31.20;99.90;;;;;;5026549;28;20017;-60
2022/05/28 05:49:19;;;;;;;16.27;9.30;;;31.20;99.90;;;;;;5027290;28;20380;-60
2022/05/28 05:51:47;;;;;;;15.75;10.90;;;31.20;99.90;;;;;;5022356;28;20112;-61
2022/05/28 05:54:15;;;;;;;14.38;10.98;;;31.20;99.90;;;;;;5018788;28;20498;-62
2022/05/28 05:56:42;;;;;;;14.25;11.00;;;31.20;99.90;;;;;;5017674;28;20367;-61
2022/05/28 05:59:09;;;;;;;14.60;12.00;;;31.20;99.90;;;;;;5036461;28;20022;-60
2022/05/28 06:01:35;;;;;;;16.98;11.80;;;31.20;99.90;;;;;;5053815;28;20031;-61
2022/05/28 06:04:02;;;;;;;16.48;12.35;;;31.30;99.90;;;;;;5053216;28;20036;-66
2022/05/28 06:06:29;;;;;;;18.73;11.85;;;31.30;99.90;;;;;;5049635;28;20107;-66
2022/05/28 06:08:56;;;;;;;13.88;10.38;;;31.40;99.90;;;;;;5048363;28;20037;-67
2022/05/28 06:11:22;;;;;;;20.10;12.20;;;31.30;99.90;;;;;;5055422;28;20025;-66
2022/05/28 06:13:49;;;;;;;15.95;12.15;;;31.30;99.90;;;;;;5032448;28;20689;-67
2022/05/28 06:16:16;;;;;;;20.15;11.07;;;31.20;99.90;;;;;;5027028;28;20083;-65
2022/05/28 06:18:42;;;;;;;15.75;11.63;;;31.10;99.90;;;;;;5031476;28;20056;-67
2022/05/28 06:21:09;;;;;;;22.15;14.93;;;31.00;99.90;;;;;;5026445;28;20364;-67
2022/05/28 06:23:36;;;;;;;18.10;13.43;;;31.00;99.90;;;;;;5037833;28;20044;-67
2022/05/28 06:26:06;;;;;;;15.88;11.88;;;31.00;99.90;;;;;;5027553;28;20021;-66
2022/05/28 06:28:33;;;;;;;19.45;11.38;;;31.00;99.90;;;;;;5029325;28;20029;-66
2022/05/28 06:31:07;;;;;;;17.95;13.80;;;31.00;99.90;;;;;;5033643;28;20079;-66
2022/05/28 06:33:35;;;;;;;153.65;109.30;;;31.00;99.90;;;;;;5026970;28;20026;-66
2022/05/28 06:36:04;;;;;;;21.02;16.73;;;31.00;99.90;;;;;;5025771;28;20371;-66
2022/05/28 06:38:31;;;;;;;107.47;79.68;;;31.10;99.90;;;;;;5024723;28;20060;-66
2022/05/28 06:41:00;;;;;;;20.73;13.95;;;31.10;99.90;;;;;;5025497;28;20050;-65
2022/05/28 06:43:27;;;;;;;17.88;12.02;;;31.00;99.90;;;;;;5028469;28;20531;-65
2022/05/28 06:45:54;;;;;;;19.23;15.05;;;31.00;99.90;;;;;;5030764;28;20053;-66
2022/05/28 06:48:21;;;;;;;20.13;16.52;;;31.20;99.90;;;;;;5029969;28;20621;-67
2022/05/28 06:53:47;;;;;;;16.25;12.82;;;31.10;99.90;;;;;;5029118;28;20144;-66
2022/05/28 06:56:16;;;;;;;16.88;13.48;;;31.10;99.90;;;;;;5026228;28;20116;-66
2022/05/28 06:58:44;;;;;;;18.35;12.63;;;31.10;99.90;;;;;;5020493;28;20164;-66
2022/05/28 07:01:12;;;;;;;22.48;12.30;;;31.00;99.90;;;;;;5024931;28;20025;-66
2022/05/28 07:03:43;;;;;;;18.95;13.27;;;31.00;99.90;;;;;;5023022;28;20036;-66
2022/05/28 07:06:11;;;;;;;25.65;17.08;;;31.00;99.90;;;;;;5026990;28;20073;-67
2022/05/28 07:08:38;;;;;;;21.33;15.35;;;31.10;99.90;;;;;;5022517;28;20171;-66
2022/05/28 07:11:06;;;;;;;31.65;27.15;;;31.10;99.90;;;;;;5025618;28;20813;-66
2022/05/28 07:13:34;;;;;;;53.25;36.92;;;31.10;99.90;;;;;;5029580;28;20379;-66
2022/05/28 07:16:00;;;;;;;40.78;29.52;;;31.00;99.90;;;;;;5025911;28;20018;-66
2022/05/28 07:18:27;;;;;;;30.58;21.98;;;31.00;99.90;;;;;;5024911;28;20030;-66
2022/05/28 07:20:54;;;;;;;26.20;19.58;;;31.00;99.90;;;;;;5027885;28;20029;-66
2022/05/28 07:23:24;;;;;;;43.85;29.25;;;31.00;99.90;;;;;;5031597;28;20052;-66
2022/05/28 07:25:57;;;;;;;41.13;30.95;;;30.90;99.90;;;;;;5025794;28;20055;-66
2022/05/28 07:28:25;;;;;;;33.78;25.45;;;31.00;99.90;;;;;;5026008;28;20057;-66
2022/05/28 07:30:52;;;;;;;29.23;19.80;;;31.00;99.90;;;;;;5038137;28;20124;-66
2022/05/28 07:33:20;;;;;;;31.70;21.27;;;31.00;99.90;;;;;;5034126;28;20509;-67
2022/05/28 07:35:47;;;;;;;35.85;24.67;;;31.10;99.90;;;;;;5032187;28;20038;-66
2022/05/28 07:38:14;;;;;;;50.85;32.33;;;31.10;99.90;;;;;;5023592;28;20097;-66
2022/05/28 07:40:41;;;;;;;45.55;28.02;;;31.10;99.90;;;;;;5024406;28;20087;-66
2022/05/28 07:43:08;;;;;;;32.90;21.88;;;31.20;99.90;;;;;;5030774;28;20036;-67
2022/05/28 07:45:39;;;;;;;25.30;15.85;;;31.20;99.90;;;;;;5027775;28;20026;-67
2022/05/28 07:48:06;;;;;;;27.35;18.05;;;31.20;99.90;;;;;;5024105;28;20096;-67
2022/05/28 07:50:33;;;;;;;24.88;17.80;;;31.10;99.90;;;;;;5027935;28;20076;-67
2022/05/28 07:53:00;;;;;;;34.47;19.58;;;31.10;99.90;;;;;;5024508;28;20010;-66
2022/05/28 07:55:28;;;;;;;33.08;18.85;;;31.20;99.90;;;;;;5026559;28;20079;-66
2022/05/28 07:57:55;;;;;;;30.00;17.45;;;31.20;99.90;;;;;;5029657;28;20370;-62
2022/05/28 08:00:22;;;;;;;25.13;16.98;;;31.10;99.90;;;;;;5035356;28;20030;-62
2022/05/28 08:02:48;;;;;;;28.17;17.38;;;31.10;99.90;;;;;;5034940;28;20441;-62
2022/05/28 08:05:15;;;;;;;23.05;16.33;;;31.20;99.90;;;;;;5034363;28;20025;-62
2022/05/28 08:07:42;;;;;;;19.98;16.13;;;31.20;99.90;;;;;;5026996;28;20048;-62
2022/05/28 08:10:09;;;;;;;23.17;16.80;;;31.10;99.90;;;;;;5021762;28;20026;-61
2022/05/28 08:12:35;;;;;;;25.77;17.48;;;31.10;99.90;;;;;;5022254;28;20052;-62
2022/05/28 08:15:03;;;;;;;23.67;17.75;;;31.10;99.90;;;;;;5028119;28;20018;-62
2022/05/28 08:17:32;;;;;;;25.85;16.33;;;31.10;99.90;;;;;;5024089;28;20018;-62
2022/05/28 08:19:59;;;;;;;19.88;15.05;;;31.20;99.90;;;;;;5025021;28;20108;-62
2022/05/28 08:25:12;;;;;;;23.38;16.60;;;31.20;99.90;;;;;;5026846;28;20113;-61
2022/05/28 08:27:39;;;;;;;22.35;15.23;;;31.20;99.90;;;;;;5028842;28;20018;-61
2022/05/28 08:30:07;;;;;;;23.45;16.10;;;31.20;99.90;;;;;;5035019;28;20032;-61
2022/05/28 08:32:33;;;;;;;22.73;14.88;;;31.20;99.90;;;;;;5035503;28;20038;-61
2022/05/28 08:35:00;;;;;;;25.05;18.48;;;31.20;99.90;;;;;;5038415;28;20103;-62
2022/05/28 08:37:27;;;;;;;23.60;17.30;;;31.20;99.90;;;;;;5034820;28;20533;-62
2022/05/28 08:39:53;;;;;;;25.35;20.27;;;31.20;99.90;;;;;;5034782;28;20493;-61
2022/05/28 08:42:24;;;;;;;21.75;15.73;;;31.20;99.90;;;;;;5034521;28;20053;-61
2022/05/28 08:44:52;;;;;;;26.75;16.92;;;31.20;99.90;;;;;;5034178;28;20155;-61
2022/05/28 08:47:33;;;;;;;24.75;17.77;;;31.20;99.90;;;;;;5037360;28;20287;-61
2022/05/28 08:50:00;;;;;;;25.58;16.48;;;31.20;99.90;;;;;;5053513;28;20037;-61
2022/05/28 08:52:31;;;;;;;27.77;19.52;;;31.10;99.90;;;;;;5054128;28;20036;-61
2022/05/28 08:55:08;;;;;;;26.23;21.63;;;31.10;99.90;;;;;;5051052;28;20037;-61
2022/05/28 08:57:36;;;;;;;30.13;22.63;;;31.10;99.90;;;;;;5034478;28;20056;-61
2022/05/28 09:00:09;;;;;;;42.63;29.20;;;31.10;99.90;;;;;;5032536;28;20030;-61
2022/05/28 09:02:41;;;;;;;62.13;38.92;;;31.10;99.90;;;;;;5044156;28;20025;-61
2022/05/28 09:05:25;;;;;;;76.10;50.25;;;31.00;99.90;;;;;;5048670;28;20091;-61
2022/05/28 09:07:54;;;;;;;134.77;91.47;;;31.00;99.90;;;;;;5050307;28;20037;-62
2022/05/28 09:10:21;;;;;;;99.97;62.92;;;31.00;99.90;;;;;;5053938;28;20104;-61
2022/05/28 09:12:56;;;;;;;37.95;26.95;;;31.00;99.90;;;;;;5054079;28;20039;-62
2022/05/28 09:15:23;;;;;;;271.10;193.05;;;31.00;99.90;;;;;;5047720;28;20033;-62
2022/05/28 09:17:53;;;;;;;152.75;102.70;;;30.90;99.90;;;;;;5034087;28;20021;-62
2022/05/28 09:20:27;;;;;;;43.50;28.88;;;30.90;99.90;;;;;;5033865;28;20346;-62
2022/05/28 09:22:55;;;;;;;44.90;30.80;;;30.70;99.90;;;;;;5051939;28;20120;-62
2022/05/28 09:25:26;;;;;;;39.38;19.52;;;30.70;99.90;;;;;;5048137;28;20474;-62
2022/05/28 09:28:06;;;;;;;22.25;15.88;;;30.70;99.90;;;;;;5033468;28;20040;-62
2022/05/28 09:30:43;;;;;;;23.27;16.95;;;30.70;99.90;;;;;;5033740;28;20025;-62
2022/05/28 09:33:37;;;;;;;23.33;16.17;;;30.70;99.90;;;;;;5033755;28;20466;-62
2022/05/28 09:36:14;;;;;;;62.53;32.85;;;30.60;99.90;;;;;;5033425;28;20029;-61
2022/05/28 09:38:43;;;;;;;40.08;24.88;;;30.60;99.90;;;;;;5033208;28;20112;-62
2022/05/28 09:41:30;;;;;;;33.15;19.10;;;30.60;99.90;;;;;;5033067;28;20049;-62
2022/05/28 09:44:14;;;;;;;27.70;18.05;;;30.60;99.90;;;;;;5012855;28;20112;-62
2022/05/28 09:46:45;;;;;;;33.00;17.40;;;30.60;99.90;;;;;;5034407;28;20056;-62
2022/05/28 09:49:18;;;;;;;32.05;15.05;;;30.60;99.90;;;;;;5053316;28;20060;-62
2022/05/28 09:52:07;;;;;;;24.63;16.60;;;30.50;99.90;;;;;;5053491;28;20033;-61
2022/05/28 09:54:35;;;;;;;31.45;20.90;;;30.50;99.90;;;;;;4966531;28;20028;-61
2022/05/28 09:57:10;;;;;;;32.38;17.67;;;30.50;99.90;;;;;;4964996;28;20082;-62
2022/05/28 09:59:55;;;;;;;26.83;17.45;;;30.40;99.90;;;;;;4972588;28;20153;-62
2022/05/28 10:02:28;;;;;;;27.92;17.58;;;30.40;99.90;;;;;;4969963;28;20058;-62
2022/05/28 10:04:57;;;;;;;28.40;17.48;;;30.40;99.90;;;;;;4968780;28;20074;-62
2022/05/28 10:07:38;;;;;;;26.52;17.13;;;30.40;99.90;;;;;;4968904;28;20035;-62
2022/05/28 10:10:28;;;;;;;132.20;94.00;;;30.40;99.90;;;;;;4941981;28;20031;-63
2022/05/28 10:13:06;;;;;;;67.32;47.38;;;30.40;99.90;;;;;;4972514;28;20031;-61
2022/05/28 10:15:39;;;;;;;126.57;92.03;;;30.30;99.90;;;;;;4971712;28;20031;-62
2022/05/28 10:18:12;;;;;;;55.20;39.80;;;30.30;99.90;;;;;;4967976;28;20031;-62
2022/05/28 10:20:39;;;;;;;131.43;91.68;;;30.30;99.90;;;;;;4963425;28;20035;-62
2022/05/28 10:23:14;;;;;;;107.40;70.63;;;30.30;99.90;;;;;;5060187;22;20125;-62
2022/05/28 10:25:48;;;;;;;51.13;38.42;;;30.30;99.90;;;;;;5066690;28;20021;-63
2022/05/28 10:28:53;;;;;;;69.47;46.00;;;30.30;99.90;;;;;;5053004;28;20111;-62
2022/05/28 10:31:24;;;;;;;61.00;39.53;;;30.30;99.90;;;;;;5052882;28;20162;-62
2022/05/28 10:33:51;;;;;;;142.18;97.85;;;30.30;99.90;;;;;;5062603;28;20672;-62
2022/05/28 10:36:22;;;;;;;232.48;168.15;;;30.30;99.90;;;;;;5057223;28;20474;-62
2022/05/28 10:38:49;;;;;;;166.00;110.43;;;30.20;99.90;;;;;;5068619;28;20558;-62
2022/05/28 10:41:22;;;;;;;196.13;140.90;;;30.20;99.90;;;;;;5060390;28;20041;-61
2022/05/28 10:43:49;;;;;;;153.30;89.72;;;30.20;99.90;;;;;;5066849;28;20032;-61
2022/05/28 10:46:40;;;;;;;139.45;76.75;;;30.20;99.90;;;;;;5073512;28;20039;-62
2022/05/28 10:49:25;;;;;;;128.50;88.60;;;30.20;99.90;;;;;;5066053;28;20020;-61
2022/05/28 10:51:56;;;;;;;143.13;109.43;;;30.10;99.90;;;;;;5061357;28;20059;-61
2022/05/28 10:54:31;;;;;;;163.35;106.82;;;30.10;99.90;;;;;;5063875;28;20063;-62
2022/05/28 10:57:26;;;;;;;161.27;116.57;;;30.00;99.90;;;;;;5064738;28;20024;-61
2022/05/28 11:00:04;;;;;;;172.35;127.22;;;30.00;99.90;;;;;;5063868;28;20033;-62
2022/05/28 11:02:42;;;;;;;170.85;122.25;;;29.90;99.90;;;;;;5061392;28;20024;-62
2022/05/28 11:05:18;;;;;;;126.55;85.30;;;29.90;99.90;;;;;;5063309;28;20457;-63
2022/05/28 11:08:25;;;;;;;94.47;63.30;;;29.80;99.90;;;;;;5063297;28;20040;-61
2022/05/28 11:11:33;;;;;;;87.93;51.28;;;29.90;99.90;;;;;;4934861;29;20031;-60
2022/05/28 11:14:10;;;;;;;92.10;64.05;;;29.90;99.90;;;;;;4879415;29;20032;-62
2022/05/28 11:16:39;;;;;;;85.03;56.63;;;29.90;99.90;;;;;;4878667;29;20036;-62
2022/05/28 11:19:18;;;;;;;124.25;86.60;;;29.80;99.90;;;;;;4879254;29;20025;-64
2022/05/28 11:21:55;;;;;;;114.60;73.15;;;29.80;99.90;;;;;;4879158;29;20049;-62
2022/05/28 11:24:51;;;;;;;95.35;63.92;;;29.70;99.90;;;;;;4879617;29;20514;-62
2022/05/28 11:27:29;;;;;;;81.78;54.03;;;29.70;99.90;;;;;;4874756;29;20037;-62
2022/05/28 11:30:11;;;;;;;81.55;52.15;;;29.60;99.90;;;;;;4879037;29;20029;-61
2022/05/28 11:32:43;;;;;;;;;;;29.40;99.90;;;;;;4878829;29;20458;-62
2022/05/28 11:35:21;;;;;;;75.10;49.22;;;29.50;99.90;;;;;;4877853;29;19911;-62
2022/05/28 11:37:56;;;;;;;70.43;45.50;;;29.40;99.90;;;;;;4878181;29;20032;-62
2022/05/28 11:40:55;;;;;;;67.90;41.03;;;29.40;99.90;;;;;;4878065;29;20045;-61
2022/05/28 11:43:28;;;;;;;60.00;40.33;;;29.40;99.90;;;;;;4816881;29;20046;-62
2022/05/28 11:46:01;;;;;;;63.90;37.33;;;29.50;99.90;;;;;;4820535;29;20198;-61
2022/05/28 11:51:27;;;;;;;57.13;35.05;;;29.40;99.90;;;;;;4880853;29;20115;-62
2022/05/28 11:51:29;;;;;;;68.05;40.17;;;29.40;99.90;;;;;;4900791;29;20040;-62
2022/05/28 11:54:29;;;;;;;66.07;38.85;;;29.40;99.90;;;;;;4888915;29;20040;-62
2022/05/28 11:57:03;;;;;;;68.38;39.78;;;29.50;99.90;;;;;;4899286;29;20040;-63
2022/05/28 11:59:32;;;;;;;65.03;42.15;;;29.40;99.90;;;;;;4900120;29;20032;-63
2022/05/28 12:02:07;;;;;;;83.75;50.42;;;29.40;99.90;;;;;;4906883;29;20033;-63
2022/05/28 12:04:42;;;;;;;93.72;59.20;;;29.40;99.90;;;;;;4905115;29;20024;-63
2022/05/28 12:07:12;;;;;;;101.35;59.25;;;29.40;99.90;;;;;;4896274;29;20051;-63
2022/05/28 12:09:45;;;;;;;94.20;56.92;;;29.20;99.90;;;;;;4912986;28;20046;-63
2022/05/28 12:12:33;;;;;;;127.78;73.03;;;29.20;99.90;;;;;;4964819;28;20480;-63
2022/05/28 12:15:24;;;;;;;131.10;79.03;;;29.20;99.90;;;;;;4958564;28;20396;-62
2022/05/28 12:18:06;;;;;;;119.45;72.20;;;29.20;99.90;;;;;;4962000;28;20038;-63
2022/05/28 12:20:50;;;;;;;148.23;100.22;;;29.30;99.90;;;;;;5012391;28;20032;-63
2022/05/28 12:23:42;;;;;;;115.53;72.53;;;29.30;99.90;;;;;;5043534;28;20049;-63
2022/05/28 12:26:38;;;;;;;125.50;86.25;;;29.20;99.90;;;;;;5041492;28;20116;-63
2022/05/28 12:29:06;;;;;;;142.90;92.95;;;29.10;99.90;;;;;;5044610;28;20070;-63
2022/05/28 12:31:32;;;;;;;144.73;91.28;;;29.10;99.90;;;;;;5041829;28;20025;-63
2022/05/28 12:34:02;;;;;;;119.93;76.95;;;29.10;99.90;;;;;;5046229;28;20104;-63
2022/05/28 12:36:51;;;;;;;113.88;69.90;;;29.00;99.90;;;;;;5047448;28;20029;-62
2022/05/28 12:39:42;;;;;;;96.35;65.70;;;29.00;99.90;;;;;;5051021;28;20044;-62
2022/05/28 12:42:23;;;;;;;110.57;72.60;;;29.00;99.90;;;;;;5001088;28;20036;-62
2022/05/28 12:44:51;;;;;;;119.82;72.45;;;29.00;99.90;;;;;;5004051;28;20411;-63
2022/05/28 12:47:29;;;;;;;121.00;75.03;;;29.00;99.90;;;;;;4998102;28;20206;-63
2022/05/28 12:50:16;;;;;;;113.90;69.85;;;29.10;99.90;;;;;;5002199;28;20025;-62
2022/05/28 12:53:01;;;;;;;111.03;67.68;;;29.10;99.90;;;;;;5008133;28;20046;-62
2022/05/28 12:55:31;;;;;;;113.07;70.65;;;29.00;99.90;;;;;;4994875;28;20109;-59
2022/05/28 12:58:03;;;;;;;137.73;90.55;;;28.80;99.90;;;;;;5009354;28;20532;-61